OJAQ/AQJ METAR and TAF weather

Enter ICAO airport designator
Station Type Date Time Source
OJAQ METAR 2021/01/16 00:00 UTC NOAA

OJAQ 160000Z 00000KT CAVOK 13/06 Q1014 NOSIG


Station Type Date Time Source
OJAQ Decoded METAR 2021/01/16 00:00 UTC NOAA

Aqaba Airport, Jordan (OJAQ) 29-38N 035-01E 51M
Jan 15, 2021 - 07:00 PM EST / 2021.01.16 0000 UTC
Wind: Calm:0
Visibility: greater than 7 mile(s):0
Temperature: 55 F (13 C)
Dew Point: 42 F (6 C)
Relative Humidity: 62%
Pressure (altimeter): 29.94 in. Hg (1014 hPa)
ob: OJAQ 160000Z 00000KT CAVOK 13/06 Q1014 NOSIG
cycle: 0

Station Type Date Time Source
OJAQ TAF 2021/01/15 18:15 UTC NOAA

TAF TAF OJAQ 151700Z 1518/1624 36010KT 7000 FEW030

Example: see airport list